createdAt,value
2018-04-16T00:00:20.557Z,13.90
2018-04-16T00:02:49.014Z,13.80
2018-04-16T00:05:16.509Z,13.70
2018-04-16T00:07:43.977Z,13.70
2018-04-16T00:10:18.652Z,13.70
2018-04-16T00:12:46.099Z,13.60
2018-04-16T00:15:13.956Z,13.60
2018-04-16T00:17:41.451Z,13.60
2018-04-16T00:20:08.932Z,13.60
2018-04-16T00:22:36.380Z,13.70
2018-04-16T00:25:03.917Z,13.70
2018-04-16T00:27:31.373Z,13.70
2018-04-16T00:29:59.600Z,13.70
2018-04-16T00:32:33.597Z,13.70
2018-04-16T00:35:06.817Z,13.70
2018-04-16T00:37:40.086Z,13.60
2018-04-16T00:40:13.120Z,13.60
2018-04-16T00:42:47.281Z,13.40
2018-04-16T00:45:20.434Z,13.40
2018-04-16T00:47:53.645Z,13.40
2018-04-16T00:50:26.781Z,13.40
2018-04-16T00:52:59.767Z,13.50
2018-04-16T00:55:32.808Z,13.40
2018-04-16T00:58:05.981Z,13.40
2018-04-16T01:00:39.146Z,13.40
2018-04-16T01:03:12.366Z,13.40
2018-04-16T01:05:45.546Z,13.40
2018-04-16T01:08:18.917Z,13.40
2018-04-16T01:10:52.004Z,13.30
2018-04-16T01:13:25.296Z,13.30
2018-04-16T01:19:11.186Z,13.30
2018-04-16T01:21:44.447Z,13.30
2018-04-16T01:24:21.252Z,13.30
2018-04-16T01:26:54.251Z,13.40
2018-04-16T01:29:27.287Z,13.60
2018-04-16T01:32:00.373Z,13.60
2018-04-16T01:34:33.587Z,13.60
2018-04-16T01:37:06.639Z,13.50
2018-04-16T01:39:43.628Z,13.30
2018-04-16T01:42:17.017Z,13.30
2018-04-16T01:44:50.065Z,13.30
2018-04-16T01:47:23.100Z,13.20
2018-04-16T01:49:56.248Z,13.20
2018-04-16T01:55:34.033Z,13.20
2018-04-16T01:58:10.904Z,13.20
2018-04-16T02:00:44.162Z,13.20
2018-04-16T02:03:18.121Z,13.20
2018-04-16T02:05:51.280Z,13.10
2018-04-16T02:08:24.661Z,13.20
2018-04-16T02:11:04.169Z,13.10
2018-04-16T02:13:37.731Z,13.10
2018-04-16T02:16:11.590Z,13.10
2018-04-16T02:18:44.747Z,13.10
2018-04-16T02:21:17.784Z,13.20
2018-04-16T02:23:50.849Z,13.20
2018-04-16T02:26:23.974Z,13.20
2018-04-16T02:28:57.049Z,13.20
2018-04-16T02:31:30.175Z,13.30
2018-04-16T02:34:03.264Z,13.30
2018-04-16T02:39:46.945Z,13.50
2018-04-16T02:42:20.156Z,13.60
2018-04-16T02:44:53.208Z,13.50
2018-04-16T02:47:26.340Z,13.50
2018-04-16T02:49:59.480Z,13.50
2018-04-16T02:52:32.663Z,13.40
2018-04-16T02:55:05.840Z,13.40
2018-04-16T02:57:39.623Z,13.40
2018-04-16T03:00:12.881Z,13.30
2018-04-16T03:02:45.989Z,13.30
2018-04-16T03:05:19.008Z,13.40
2018-04-16T03:07:51.989Z,13.40
2018-04-16T03:10:25.108Z,13.30
2018-04-16T03:12:58.145Z,13.30
2018-04-16T03:15:31.385Z,13.30
2018-04-16T03:18:04.496Z,13.40
2018-04-16T03:20:37.614Z,13.30
2018-04-16T03:23:10.705Z,13.30
2018-04-16T03:25:44.250Z,13.40
2018-04-16T03:31:16.224Z,13.50
2018-04-16T03:33:49.370Z,13.40
2018-04-16T03:36:22.396Z,13.40
2018-04-16T03:39:09.749Z,13.30
2018-04-16T03:41:42.830Z,13.30
2018-04-16T03:44:16.892Z,13.30
2018-04-16T03:46:50.256Z,13.30
2018-04-16T03:49:24.265Z,13.20
2018-04-16T03:55:07.097Z,12.90
2018-04-16T03:57:36.256Z,12.90
2018-04-16T04:00:03.764Z,12.90
2018-04-16T04:02:31.217Z,12.80
2018-04-16T04:04:58.678Z,12.80
2018-04-16T04:07:26.173Z,12.80
2018-04-16T04:09:53.666Z,12.80
2018-04-16T04:12:28.497Z,12.90
2018-04-16T04:14:55.967Z,12.90
2018-04-16T04:17:23.437Z,12.90
2018-04-16T04:19:51.188Z,12.90
2018-04-16T04:22:18.785Z,12.90
2018-04-16T04:24:58.103Z,13.00
2018-04-16T04:27:41.033Z,12.90
2018-04-16T04:30:17.675Z,12.90
2018-04-16T04:32:45.645Z,12.80
2018-04-16T04:35:13.869Z,12.90
2018-04-16T04:37:41.367Z,12.90
2018-04-16T04:40:10.516Z,13.00
2018-04-16T04:42:37.976Z,12.90
2018-04-16T04:45:17.473Z,13.00
2018-04-16T04:47:45.144Z,12.90
2018-04-16T04:50:12.603Z,12.90
2018-04-16T04:52:40.141Z,12.90
2018-04-16T04:55:07.593Z,13.00
2018-04-16T04:57:36.742Z,13.10
2018-04-16T05:00:07.834Z,13.00
2018-04-16T05:02:36.253Z,13.10
2018-04-16T05:05:03.701Z,13.00
2018-04-16T05:07:31.201Z,13.00
2018-04-16T05:09:58.691Z,13.00
2018-04-16T05:12:26.204Z,13.00
2018-04-16T05:14:53.702Z,13.00
2018-04-16T05:17:21.184Z,12.90
2018-04-16T05:19:50.382Z,12.90
2018-04-16T05:22:17.899Z,12.90
2018-04-16T05:24:45.386Z,13.00
2018-04-16T05:27:12.878Z,13.10
2018-04-16T05:29:40.385Z,13.20
2018-04-16T05:32:07.853Z,13.20
2018-04-16T05:34:35.551Z,13.20
2018-04-16T05:37:04.600Z,13.10
2018-04-16T05:39:32.085Z,13.10
2018-04-16T05:41:59.565Z,13.20
2018-04-16T05:44:30.652Z,13.20
2018-04-16T05:46:59.681Z,13.30
2018-04-16T05:49:27.144Z,13.20
2018-04-16T05:51:54.938Z,13.30
2018-04-16T05:54:23.379Z,13.30
2018-04-16T05:56:51.604Z,13.40
2018-04-16T05:59:23.133Z,13.40
2018-04-16T06:01:50.586Z,13.40
2018-04-16T06:04:18.429Z,13.40
2018-04-16T06:06:46.661Z,13.50
2018-04-16T06:09:14.165Z,13.50
2018-04-16T06:11:41.671Z,13.40
2018-04-16T06:14:19.926Z,13.40
2018-04-16T06:16:48.206Z,13.20
2018-04-16T06:19:16.526Z,13.20
2018-04-16T06:21:43.972Z,13.20
2018-04-16T06:24:11.457Z,13.20
2018-04-16T06:26:38.953Z,13.10
2018-04-16T06:29:06.922Z,13.10
2018-04-16T06:31:34.386Z,13.10
2018-04-16T06:34:01.881Z,13.10
2018-04-16T06:36:29.341Z,13.10
2018-04-16T06:38:57.775Z,13.00
2018-04-16T06:41:25.988Z,13.00
2018-04-16T06:43:53.493Z,13.00
2018-04-16T06:46:22.672Z,13.20
2018-04-16T06:48:50.364Z,13.20
2018-04-16T06:51:18.621Z,13.50
2018-04-16T06:53:46.109Z,13.50
2018-04-16T06:56:13.610Z,13.50
2018-04-16T06:58:41.883Z,13.50
2018-04-16T07:01:09.383Z,13.60
2018-04-16T07:03:36.884Z,13.70
2018-04-16T07:06:04.364Z,13.90
2018-04-16T07:08:31.900Z,13.90
2018-04-16T07:10:59.393Z,14.00
2018-04-16T07:13:26.888Z,13.90
2018-04-16T07:15:56.093Z,14.10
2018-04-16T07:18:23.528Z,14.00
2018-04-16T07:20:51.029Z,14.00
2018-04-16T07:23:18.508Z,14.10
2018-04-16T07:25:45.993Z,14.10
2018-04-16T07:28:13.425Z,14.20
2018-04-16T07:30:40.910Z,14.10
2018-04-16T07:33:09.302Z,14.10
2018-04-16T07:35:37.545Z,14.20
2018-04-16T07:38:05.055Z,14.20
2018-04-16T07:40:34.795Z,14.30
2018-04-16T07:43:02.595Z,14.20
2018-04-16T07:45:30.154Z,14.30
2018-04-16T07:47:58.592Z,14.40
2018-04-16T07:50:26.091Z,14.40
2018-04-16T07:52:53.547Z,14.50
2018-04-16T07:55:21.848Z,14.70
2018-04-16T07:57:49.314Z,14.70
2018-04-16T08:00:17.480Z,14.80
2018-04-16T08:02:50.339Z,15.00
2018-04-16T08:05:18.697Z,15.10
2018-04-16T08:07:46.181Z,15.10
2018-04-16T08:10:13.635Z,15.20
2018-04-16T08:12:41.126Z,15.20
2018-04-16T08:15:08.609Z,15.30
2018-04-16T08:17:36.119Z,15.50
2018-04-16T08:20:03.608Z,15.50
2018-04-16T08:22:32.021Z,15.60
2018-04-16T08:25:00.682Z,15.60
2018-04-16T08:27:28.392Z,15.70
2018-04-16T08:29:57.702Z,15.80
2018-04-16T08:32:25.202Z,15.80
2018-04-16T08:34:54.298Z,16.00
2018-04-16T08:37:21.800Z,15.80
2018-04-16T08:39:49.407Z,15.90
2018-04-16T08:42:16.916Z,15.80
2018-04-16T08:44:44.342Z,15.90
2018-04-16T08:47:18.759Z,15.90
2018-04-16T08:49:46.583Z,16.00
2018-04-16T08:52:14.802Z,16.10
2018-04-16T08:54:42.283Z,16.10
2018-04-16T08:57:09.753Z,16.20
2018-04-16T08:59:37.198Z,16.30
2018-04-16T09:02:09.447Z,16.40
2018-04-16T09:04:36.907Z,16.60
2018-04-16T09:07:04.505Z,16.60
2018-04-16T09:09:32.265Z,16.60
2018-04-16T09:12:00.508Z,16.60
2018-04-16T09:14:28.193Z,16.70
2018-04-16T09:16:55.686Z,16.90
2018-04-16T09:19:23.200Z,17.20
2018-04-16T09:21:50.729Z,17.20
2018-04-16T09:24:18.216Z,17.30
2018-04-16T09:26:45.657Z,17.50
2018-04-16T09:29:13.157Z,17.60
2018-04-16T09:31:40.681Z,17.70
2018-04-16T09:34:09.005Z,17.80
2018-04-16T09:36:36.518Z,17.90
2018-04-16T09:39:03.978Z,18.00
2018-04-16T09:41:31.446Z,17.90
2018-04-16T09:43:58.927Z,17.90
2018-04-16T09:46:26.389Z,18.20
2018-04-16T09:48:53.893Z,18.10
2018-04-16T09:51:21.363Z,18.00
2018-04-16T09:53:48.865Z,18.00
2018-04-16T09:56:16.928Z,18.00
2018-04-16T09:58:44.639Z,18.00
2018-04-16T10:01:17.816Z,18.10
2018-04-16T10:03:48.711Z,18.10
2018-04-16T10:06:16.178Z,18.20
2018-04-16T10:08:43.684Z,18.20
2018-04-16T10:11:11.149Z,18.30
2018-04-16T10:13:38.646Z,18.60
2018-04-16T10:16:07.152Z,18.60
2018-04-16T10:18:34.814Z,18.70
2018-04-16T10:21:02.307Z,18.60
2018-04-16T10:23:30.734Z,18.80
2018-04-16T10:25:58.220Z,18.80
2018-04-16T10:28:26.517Z,18.90
2018-04-16T10:30:53.979Z,18.70
2018-04-16T10:33:21.427Z,18.70
2018-04-16T10:35:48.893Z,18.80
2018-04-16T10:38:16.377Z,18.80
2018-04-16T10:40:43.858Z,18.80
2018-04-16T10:43:11.343Z,18.70
2018-04-16T10:45:39.729Z,18.90
2018-04-16T10:48:07.228Z,19.20
2018-04-16T10:50:34.707Z,19.10
2018-04-16T10:53:02.256Z,19.40
2018-04-16T10:55:29.717Z,19.40
2018-04-16T10:57:57.306Z,19.30
2018-04-16T11:00:24.779Z,19.30
2018-04-16T11:02:52.274Z,19.20
2018-04-16T11:05:20.016Z,19.20
2018-04-16T11:07:48.371Z,18.90
2018-04-16T11:10:15.827Z,18.90
2018-04-16T11:12:43.414Z,19.10
2018-04-16T11:15:10.886Z,19.00
2018-04-16T11:17:38.446Z,19.10
2018-04-16T11:20:05.944Z,19.20
2018-04-16T11:22:33.473Z,19.40
2018-04-16T11:25:01.855Z,19.80
2018-04-16T11:27:29.340Z,20.00
2018-04-16T11:29:57.570Z,20.30
2018-04-16T11:32:25.050Z,20.30
2018-04-16T11:34:52.547Z,20.20
2018-04-16T11:37:20.748Z,19.90
2018-04-16T11:39:48.305Z,19.80
2018-04-16T11:42:15.818Z,19.90
2018-04-16T11:44:43.282Z,19.90
2018-04-16T11:47:11.518Z,19.80
2018-04-16T11:49:38.987Z,19.80
2018-04-16T11:52:09.513Z,19.70
2018-04-16T11:54:37.133Z,19.80
2018-04-16T11:57:04.721Z,19.80
2018-04-16T11:59:32.178Z,19.70
2018-04-16T12:02:00.661Z,19.60
2018-04-16T12:04:28.269Z,19.30
2018-04-16T12:06:55.648Z,19.30
2018-04-16T12:09:24.921Z,19.00
2018-04-16T12:11:52.413Z,19.00
2018-04-16T12:14:19.905Z,19.20
2018-04-16T12:16:47.375Z,19.30
2018-04-16T12:19:14.867Z,19.40
2018-04-16T12:21:43.070Z,19.40
2018-04-16T12:24:10.738Z,19.20
2018-04-16T12:26:38.200Z,19.30
2018-04-16T12:29:05.681Z,19.30
2018-04-16T12:31:33.148Z,19.40
2018-04-16T12:34:00.635Z,19.40
2018-04-16T12:36:28.121Z,19.30
2018-04-16T12:38:55.594Z,19.40
2018-04-16T12:41:23.061Z,19.40
2018-04-16T12:43:50.549Z,19.50
2018-04-16T12:46:18.795Z,19.80
2018-04-16T12:48:46.305Z,19.80
2018-04-16T12:51:13.807Z,19.90
2018-04-16T12:53:42.111Z,19.70
2018-04-16T12:56:10.320Z,19.70
2018-04-16T12:58:37.810Z,19.60
2018-04-16T13:01:05.307Z,19.60
2018-04-16T13:03:33.570Z,19.60
2018-04-16T13:06:04.994Z,19.50
2018-04-16T13:08:32.466Z,19.50
2018-04-16T13:10:59.977Z,19.60
2018-04-16T13:13:28.322Z,19.90
2018-04-16T13:15:56.568Z,19.70
2018-04-16T13:18:24.974Z,19.80
2018-04-16T13:20:53.217Z,19.60
2018-04-16T13:23:20.705Z,19.60
2018-04-16T13:25:48.248Z,19.60
2018-04-16T13:28:16.488Z,19.60
2018-04-16T13:30:43.945Z,19.60
2018-04-16T13:33:11.416Z,19.60
2018-04-16T13:35:38.905Z,19.80
2018-04-16T13:38:06.399Z,20.00
2018-04-16T13:40:34.238Z,20.10
2018-04-16T13:43:01.817Z,20.10
2018-04-16T13:45:30.048Z,20.30
2018-04-16T13:47:57.776Z,20.30
2018-04-16T13:50:25.249Z,20.60
2018-04-16T13:52:52.760Z,20.60
2018-04-16T13:55:20.248Z,20.50
2018-04-16T13:57:47.727Z,20.40
2018-04-16T14:00:15.538Z,20.30
2018-04-16T14:02:43.033Z,20.00
2018-04-16T14:05:11.205Z,20.00
2018-04-16T14:07:38.704Z,20.10
2018-04-16T14:10:06.169Z,20.20
2018-04-16T14:12:34.706Z,20.20
2018-04-16T14:15:02.209Z,20.20
2018-04-16T14:17:30.245Z,20.30
2018-04-16T14:19:57.727Z,20.20
2018-04-16T14:22:29.862Z,20.10
2018-04-16T14:24:57.340Z,20.00
2018-04-16T14:27:25.133Z,20.10
2018-04-16T14:29:52.651Z,20.10
2018-04-16T14:32:20.227Z,20.10
2018-04-16T14:34:47.689Z,20.30
2018-04-16T14:37:15.207Z,20.30
2018-04-16T14:39:42.722Z,20.60
2018-04-16T14:42:10.995Z,21.00
2018-04-16T14:44:39.423Z,21.00
2018-04-16T14:47:06.888Z,21.10
2018-04-16T14:49:34.431Z,21.40
2018-04-16T14:52:01.945Z,21.40
2018-04-16T14:54:30.417Z,21.40
2018-04-16T14:56:58.297Z,21.30
2018-04-16T14:59:25.810Z,21.20
2018-04-16T15:01:53.289Z,21.30
2018-04-16T15:04:23.216Z,21.30
2018-04-16T15:06:52.413Z,21.20
2018-04-16T15:09:20.075Z,21.20
2018-04-16T15:11:48.590Z,21.40
2018-04-16T15:14:16.080Z,21.50
2018-04-16T15:16:43.615Z,21.50
2018-04-16T15:19:11.135Z,21.30
2018-04-16T15:21:38.638Z,21.10
2018-04-16T15:24:06.097Z,21.10
2018-04-16T15:26:33.597Z,20.90
2018-04-16T15:29:01.603Z,20.90
2018-04-16T15:31:29.245Z,20.90
2018-04-16T15:33:57.558Z,20.80
2018-04-16T15:36:25.001Z,20.80
2018-04-16T15:38:52.542Z,20.90
2018-04-16T15:41:20.620Z,20.70
2018-04-16T15:43:48.226Z,20.20
2018-04-16T15:46:15.704Z,20.00
2018-04-16T15:48:43.193Z,19.80
2018-04-16T15:51:11.409Z,19.60
2018-04-16T15:53:46.367Z,19.60
2018-04-16T15:56:14.053Z,19.70
2018-04-16T15:58:41.584Z,19.70
2018-04-16T16:01:09.073Z,19.60
2018-04-16T16:03:36.563Z,19.80
2018-04-16T16:06:04.025Z,20.00
2018-04-16T16:08:31.481Z,19.90
2018-04-16T16:10:59.706Z,19.90
2018-04-16T16:13:27.210Z,19.90
2018-04-16T16:15:54.817Z,20.00
2018-04-16T16:18:22.496Z,20.10
2018-04-16T16:20:49.993Z,20.20
2018-04-16T16:23:19.165Z,20.20
2018-04-16T16:25:46.659Z,20.10
2018-04-16T16:28:14.181Z,20.20
2018-04-16T16:30:41.666Z,20.30
2018-04-16T16:33:09.185Z,20.20
2018-04-16T16:35:36.701Z,20.10
2018-04-16T16:38:04.154Z,19.90
2018-04-16T16:40:35.545Z,19.70
2018-04-16T16:43:02.993Z,19.60
2018-04-16T16:45:30.477Z,19.60
2018-04-16T16:47:58.706Z,19.30
2018-04-16T16:50:26.259Z,19.30
2018-04-16T16:52:53.717Z,19.20
2018-04-16T16:55:24.923Z,19.10
2018-04-16T16:57:53.737Z,18.80
2018-04-16T17:00:21.234Z,18.80
2018-04-16T17:02:49.078Z,18.70
2018-04-16T17:05:16.898Z,18.60
2018-04-16T17:07:44.542Z,18.60
2018-04-16T17:10:15.062Z,18.60
2018-04-16T17:12:43.048Z,18.60
2018-04-16T17:15:10.532Z,18.70
2018-04-16T17:17:38.018Z,19.00
2018-04-16T17:20:06.464Z,19.30
2018-04-16T17:22:34.668Z,19.30
2018-04-16T17:25:02.173Z,19.30
2018-04-16T17:27:31.335Z,19.30
2018-04-16T17:29:58.801Z,19.30
2018-04-16T17:32:26.297Z,19.40
2018-04-16T17:34:53.747Z,19.50
2018-04-16T17:37:21.272Z,19.20
2018-04-16T17:39:49.116Z,18.90
2018-04-16T17:42:16.643Z,18.60
2018-04-16T17:44:44.715Z,18.40
2018-04-16T17:47:12.197Z,18.10
2018-04-16T17:49:39.691Z,18.00
2018-04-16T17:52:07.184Z,18.00
2018-04-16T17:54:35.825Z,17.90
2018-04-16T17:57:05.430Z,17.60
2018-04-16T17:59:32.922Z,17.60
2018-04-16T18:02:00.392Z,17.40
2018-04-16T18:04:28.775Z,17.30
2018-04-16T18:06:56.316Z,17.10
2018-04-16T18:09:24.583Z,16.70
2018-04-16T18:11:55.806Z,16.70
2018-04-16T18:14:24.709Z,16.30
2018-04-16T18:16:54.081Z,16.00
2018-04-16T18:19:21.551Z,16.00
2018-04-16T18:21:49.008Z,15.90
2018-04-16T18:24:16.563Z,15.90
2018-04-16T18:26:44.100Z,15.80
2018-04-16T18:29:15.072Z,15.60
2018-04-16T18:31:43.482Z,15.40
2018-04-16T18:34:10.971Z,15.30
2018-04-16T18:36:38.882Z,15.10
2018-04-16T18:39:06.333Z,15.00
2018-04-16T18:41:37.721Z,14.90
2018-04-16T18:44:05.468Z,14.90
2018-04-16T18:46:33.128Z,14.80
2018-04-16T18:49:00.605Z,14.70
2018-04-16T18:51:28.834Z,14.50
2018-04-16T18:53:56.329Z,14.40
2018-04-16T18:56:23.775Z,14.40
2018-04-16T18:58:52.152Z,14.30
2018-04-16T19:01:19.628Z,14.10
2018-04-16T19:03:47.095Z,14.10
2018-04-16T19:06:14.929Z,14.00
2018-04-16T19:08:42.403Z,14.00
2018-04-16T19:11:11.554Z,13.90
2018-04-16T19:13:39.052Z,13.90
2018-04-16T19:16:06.557Z,13.80
2018-04-16T19:18:34.374Z,13.70
2018-04-16T19:21:07.419Z,13.60
2018-04-16T19:23:34.960Z,13.40
2018-04-16T19:26:02.445Z,13.30
2018-04-16T19:28:30.085Z,13.20
2018-04-16T19:30:57.636Z,13.20
2018-04-16T19:33:31.397Z,13.20
2018-04-16T19:35:58.858Z,13.10
2018-04-16T19:38:26.418Z,13.10
2018-04-16T19:41:01.365Z,13.00
2018-04-16T19:43:29.634Z,12.90
2018-04-16T19:45:57.605Z,12.80
2018-04-16T19:48:25.122Z,12.70
2018-04-16T19:50:52.617Z,12.60
2018-04-16T19:53:20.130Z,12.50
2018-04-16T19:58:55.028Z,12.50
2018-04-16T20:01:22.485Z,12.50
2018-04-16T20:03:55.493Z,12.50
2018-04-16T20:06:22.944Z,12.40
2018-04-16T20:08:50.437Z,12.30
2018-04-16T20:11:17.896Z,12.30
2018-04-16T20:13:45.429Z,12.30
2018-04-16T20:16:12.928Z,12.20
2018-04-16T20:18:40.402Z,12.10
2018-04-16T20:21:07.859Z,12.10
2018-04-16T20:23:35.341Z,12.00
2018-04-16T20:26:02.908Z,11.90
2018-04-16T20:28:31.279Z,11.90
2018-04-16T20:30:58.769Z,11.90
2018-04-16T20:33:26.235Z,11.80
2018-04-16T20:35:53.702Z,11.80
2018-04-16T20:38:21.401Z,11.70
2018-04-16T20:40:48.956Z,11.70
2018-04-16T20:43:16.515Z,11.60
2018-04-16T20:45:45.392Z,11.50
2018-04-16T20:48:12.878Z,11.40
2018-04-16T20:50:40.367Z,11.40
2018-04-16T20:53:07.850Z,11.40
2018-04-16T20:55:35.342Z,11.40
2018-04-16T20:58:02.847Z,11.40
2018-04-16T21:00:30.346Z,11.30
2018-04-16T21:02:59.466Z,11.20
2018-04-16T21:05:27.000Z,11.10
2018-04-16T21:10:27.477Z,11.00
2018-04-16T21:12:55.149Z,10.90
2018-04-16T21:15:22.663Z,10.90
2018-04-16T21:17:50.985Z,10.80
2018-04-16T21:20:18.573Z,10.80
2018-04-16T21:22:46.196Z,10.80
2018-04-16T21:25:13.718Z,10.80
2018-04-16T21:27:41.480Z,10.80
2018-04-16T21:30:12.084Z,10.80
2018-04-16T21:32:39.638Z,11.10
2018-04-16T21:35:07.861Z,11.10
2018-04-16T21:37:35.408Z,10.90
2018-04-16T21:40:03.366Z,10.80
2018-04-16T21:42:30.988Z,10.70
2018-04-16T21:44:58.502Z,10.60
2018-04-16T21:47:26.965Z,10.50
2018-04-16T21:49:54.509Z,10.40
2018-04-16T21:52:22.276Z,10.30
2018-04-16T21:54:50.026Z,10.30
2018-04-16T21:57:17.548Z,10.20
2018-04-16T21:59:56.938Z,10.30
2018-04-16T22:02:24.456Z,10.30
2018-04-16T22:04:52.809Z,10.20
2018-04-16T22:07:20.381Z,10.20
2018-04-16T22:09:48.004Z,10.30
2018-04-16T22:12:15.537Z,10.30
2018-04-16T22:14:43.080Z,10.30
2018-04-16T22:17:10.582Z,10.30
2018-04-16T22:19:38.370Z,10.30
2018-04-16T22:22:06.346Z,10.20
2018-04-16T22:24:34.792Z,10.20
2018-04-16T22:27:02.358Z,10.20
2018-04-16T22:29:29.900Z,10.10
2018-04-16T22:31:57.411Z,10.00
2018-04-16T22:34:26.653Z,10.00
2018-04-16T22:36:54.171Z,10.00
2018-04-16T22:39:21.728Z,10.00
2018-04-16T22:41:50.925Z,9.90
2018-04-16T22:44:18.423Z,9.90
2018-04-16T22:46:45.951Z,9.90
2018-04-16T22:49:15.164Z,9.90
2018-04-16T22:51:42.730Z,9.90
2018-04-16T22:54:10.253Z,9.90
2018-04-16T22:56:37.790Z,9.90
2018-04-16T22:59:05.301Z,9.80
2018-04-16T23:01:36.002Z,9.80
2018-04-16T23:04:03.509Z,9.70
2018-04-16T23:06:31.054Z,9.60
2018-04-16T23:08:59.397Z,9.60
2018-04-16T23:11:26.901Z,9.50
2018-04-16T23:13:54.492Z,9.50
2018-04-16T23:16:26.279Z,9.50
2018-04-16T23:18:54.254Z,9.40
2018-04-16T23:21:22.548Z,9.40
2018-04-16T23:23:50.077Z,9.40
2018-04-16T23:26:17.629Z,9.30
2018-04-16T23:28:45.143Z,9.40
2018-04-16T23:31:13.160Z,9.40
2018-04-16T23:33:44.638Z,9.40
2018-04-16T23:36:13.861Z,9.30
2018-04-16T23:38:41.401Z,9.30
2018-04-16T23:41:08.912Z,9.30
2018-04-16T23:43:36.448Z,9.30
2018-04-16T23:46:03.981Z,9.30
2018-04-16T23:48:32.453Z,9.30
2018-04-16T23:51:00.036Z,9.30
2018-04-16T23:53:27.664Z,9.30
2018-04-16T23:55:55.196Z,9.30
2018-04-16T23:58:22.724Z,9.30
